createdAt,value
2019-05-20T00:08:54.602Z,8.03
2019-05-20T00:11:24.058Z,7.87
2019-05-20T00:13:53.922Z,7.20
2019-05-20T00:16:23.069Z,8.03
2019-05-20T00:18:53.454Z,8.90
2019-05-20T00:21:25.575Z,7.97
2019-05-20T00:24:04.920Z,7.97
2019-05-20T00:38:15.638Z,6.77
2019-05-20T00:40:51.642Z,7.60
2019-05-20T00:43:27.674Z,8.20
2019-05-20T00:46:01.361Z,8.03
2019-05-20T00:48:39.507Z,7.70
2019-05-20T00:59:42.468Z,7.33
2019-05-20T01:02:14.357Z,8.17
2019-05-20T01:04:43.663Z,6.90
2019-05-20T01:07:16.879Z,7.70
2019-05-20T01:12:35.254Z,7.00
2019-05-20T01:15:05.013Z,7.30
2019-05-20T01:17:34.286Z,8.40
2019-05-20T01:20:06.006Z,7.10
2019-05-20T01:22:35.662Z,7.40
2019-05-20T01:25:12.801Z,7.73
2019-05-20T01:27:42.174Z,7.63
2019-05-20T01:30:24.647Z,7.40
2019-05-20T01:38:34.038Z,9.40
2019-05-20T01:44:14.623Z,9.93
2019-05-20T03:22:38.100Z,20.77
2019-05-20T04:09:46.466Z,30.13
2019-05-20T04:12:18.578Z,31.27
2019-05-20T04:14:51.257Z,29.50
2019-05-20T04:29:15.481Z,30.13
2019-05-20T04:31:46.955Z,30.93
2019-05-20T04:37:14.928Z,29.93
2019-05-20T04:39:43.629Z,29.30
2019-05-20T04:51:23.877Z,31.20
2019-05-20T04:53:52.474Z,31.80
2019-05-20T04:56:29.224Z,31.87
2019-05-20T04:58:57.577Z,31.47
2019-05-20T05:01:26.492Z,31.70
2019-05-20T05:03:55.212Z,33.43
2019-05-20T05:09:54.820Z,32.67
2019-05-20T05:12:41.619Z,31.17
2019-05-20T05:15:14.811Z,33.60
2019-05-20T05:17:46.931Z,31.67
2019-05-20T05:20:26.052Z,30.60
2019-05-20T05:23:10.153Z,31.77
2019-05-20T05:54:33.396Z,24.23
2019-05-20T06:02:25.436Z,21.43
2019-05-20T06:04:54.217Z,21.23
2019-05-20T06:07:22.661Z,20.93
2019-05-20T06:09:51.398Z,21.50
2019-05-20T06:12:19.813Z,20.77
2019-05-20T06:14:48.249Z,20.17
2019-05-20T06:17:16.971Z,18.47
2019-05-20T06:19:45.633Z,16.20
2019-05-20T06:22:14.683Z,17.57
2019-05-20T06:24:43.537Z,16.62
2019-05-20T06:27:12.222Z,15.90
2019-05-20T06:29:40.809Z,16.75
2019-05-20T06:32:09.530Z,16.25
2019-05-20T06:34:38.317Z,16.42
2019-05-20T06:37:11.151Z,17.12
2019-05-20T06:39:39.622Z,16.23
2019-05-20T06:42:08.309Z,14.35
2019-05-20T06:44:51.678Z,13.08
2019-05-20T06:47:07.478Z,12.45
2019-05-20T06:49:35.915Z,13.75
2019-05-20T06:52:04.478Z,12.20
2019-05-20T06:54:32.943Z,12.65
2019-05-20T06:57:01.743Z,13.08
2019-05-20T06:59:30.365Z,13.28
2019-05-20T07:01:59.258Z,13.15
2019-05-20T07:04:27.701Z,13.93
2019-05-20T07:06:56.489Z,14.20
2019-05-20T07:09:25.201Z,13.88
2019-05-20T07:11:53.885Z,13.60
2019-05-20T07:14:22.322Z,14.20
2019-05-20T07:16:51.030Z,14.83
2019-05-20T07:19:19.724Z,13.30
2019-05-20T07:21:48.520Z,14.00
2019-05-20T07:24:17.045Z,13.60
2019-05-20T07:26:45.744Z,13.80
2019-05-20T07:29:14.455Z,14.00
2019-05-20T07:31:44.108Z,13.40
2019-05-20T07:34:12.532Z,13.90
2019-05-20T07:36:41.245Z,12.87
2019-05-20T07:39:09.954Z,12.82
2019-05-20T07:41:41.360Z,12.60
2019-05-20T07:44:08.791Z,12.73
2019-05-20T07:46:37.593Z,12.73
2019-05-20T07:49:06.864Z,13.48
2019-05-20T07:51:36.102Z,13.20
2019-05-20T07:54:05.094Z,13.78
2019-05-20T07:56:36.967Z,11.57
2019-05-20T07:59:08.361Z,11.43
2019-05-20T08:01:37.222Z,11.38
2019-05-20T08:04:05.995Z,10.90
2019-05-20T08:06:34.710Z,11.30
2019-05-20T08:09:05.209Z,11.85
2019-05-20T08:11:34.092Z,10.90
2019-05-20T08:14:02.863Z,11.30
2019-05-20T08:16:31.609Z,10.58
2019-05-20T08:19:00.366Z,11.57
2019-05-20T08:21:29.113Z,9.80
2019-05-20T08:23:57.869Z,9.43
2019-05-20T08:26:26.661Z,7.92
2019-05-20T08:28:55.273Z,8.70
2019-05-20T08:31:24.160Z,7.92
2019-05-20T08:33:53.036Z,7.65
2019-05-20T08:36:21.862Z,8.85
2019-05-20T08:38:50.596Z,9.03
2019-05-20T08:41:19.298Z,8.78
2019-05-20T08:43:47.776Z,8.70
2019-05-20T08:46:16.242Z,8.05
2019-05-20T08:48:44.935Z,7.05
2019-05-20T08:51:13.640Z,8.30
2019-05-20T08:53:42.435Z,9.83
2019-05-20T08:56:11.172Z,8.33
2019-05-20T08:58:40.005Z,8.60
2019-05-20T09:01:10.123Z,8.15
2019-05-20T09:03:39.240Z,8.80
2019-05-20T09:06:08.040Z,8.43
2019-05-20T09:08:36.781Z,6.87
2019-05-20T09:11:05.484Z,8.58
2019-05-20T09:13:34.169Z,8.00
2019-05-20T09:16:02.921Z,8.08
2019-05-20T09:18:45.605Z,8.40
2019-05-20T09:21:14.361Z,8.13
2019-05-20T09:23:43.414Z,9.08
2019-05-20T09:26:12.684Z,8.50
2019-05-20T09:28:41.286Z,9.13
2019-05-20T09:31:10.281Z,8.35
2019-05-20T09:33:39.330Z,8.68
2019-05-20T09:36:08.442Z,10.00
2019-05-20T09:38:39.249Z,8.93
2019-05-20T09:41:11.714Z,9.80
2019-05-20T09:43:41.405Z,8.78
2019-05-20T09:46:10.998Z,9.45
2019-05-20T09:48:41.103Z,10.25
2019-05-20T09:51:10.513Z,9.40
2019-05-20T09:56:28.153Z,9.30
2019-05-20T09:58:56.681Z,10.38
2019-05-20T10:01:30.783Z,9.28
2019-05-20T10:09:52.593Z,9.93
2019-05-20T10:12:21.654Z,10.08
2019-05-20T10:15:05.280Z,8.95
2019-05-20T10:17:34.621Z,9.60
2019-05-20T10:20:18.642Z,9.23
2019-05-20T10:29:30.179Z,9.35
2019-05-20T10:52:57.981Z,10.27
2019-05-20T10:55:33.385Z,11.07
2019-05-20T11:01:02.468Z,10.43
2019-05-20T11:03:34.456Z,10.37
2019-05-20T11:25:10.672Z,11.63
2019-05-20T11:27:39.378Z,11.63
2019-05-20T11:30:09.324Z,11.93
2019-05-20T11:32:37.900Z,12.27
2019-05-20T11:35:09.605Z,10.40
2019-05-20T11:37:39.300Z,10.77
2019-05-20T11:40:10.156Z,10.90
2019-05-20T11:42:39.420Z,11.43
2019-05-20T11:45:09.244Z,10.53
2019-05-20T11:47:38.058Z,10.53
2019-05-20T11:50:09.854Z,10.80
2019-05-20T11:52:38.837Z,12.43
2019-05-20T11:55:08.756Z,12.53
2019-05-20T11:57:37.333Z,12.77
2019-05-20T12:00:08.490Z,11.93
2019-05-20T12:02:37.369Z,11.37
2019-05-20T12:05:06.937Z,10.80
2019-05-20T12:07:35.360Z,11.47
2019-05-20T12:10:06.221Z,11.10
2019-05-20T12:12:34.917Z,10.73
2019-05-20T12:15:05.900Z,10.07
2019-05-20T12:17:35.277Z,10.27
2019-05-20T12:20:07.184Z,10.90
2019-05-20T12:22:36.589Z,11.10
2019-05-20T12:25:09.346Z,12.90
2019-05-20T12:27:38.046Z,13.13
2019-05-20T12:30:08.172Z,13.10
2019-05-20T12:32:36.688Z,13.13
2019-05-20T12:35:08.941Z,12.70
2019-05-20T12:37:37.447Z,13.37
2019-05-20T12:40:09.380Z,13.53
2019-05-20T12:42:38.186Z,14.60
2019-05-20T12:45:10.026Z,13.57
2019-05-20T12:47:38.483Z,13.57
2019-05-20T12:50:07.991Z,14.03
2019-05-20T12:52:36.747Z,12.67
2019-05-20T12:55:09.474Z,14.20
2019-05-20T12:57:37.538Z,14.17
2019-05-20T13:00:12.427Z,14.67
2019-05-20T13:02:42.468Z,15.60
2019-05-20T13:05:11.802Z,13.80
2019-05-20T13:07:40.324Z,14.10
2019-05-20T13:10:26.991Z,14.83
2019-05-20T13:12:39.906Z,13.57
2019-05-20T13:15:09.565Z,14.30
2019-05-20T13:17:43.368Z,14.60
2019-05-20T13:20:09.562Z,14.13
2019-05-20T13:22:38.017Z,13.53
2019-05-20T13:25:07.150Z,12.37
2019-05-20T13:27:35.843Z,14.33
2019-05-20T13:30:06.518Z,13.33
2019-05-20T13:32:35.275Z,13.50
2019-05-20T13:35:05.144Z,14.20
2019-05-20T13:37:33.858Z,13.77
2019-05-20T13:40:03.412Z,14.30
2019-05-20T13:42:32.148Z,15.17
2019-05-20T13:45:00.873Z,15.30
2019-05-20T13:47:29.644Z,14.77
2019-05-20T13:49:58.069Z,15.43
2019-05-20T13:52:26.776Z,15.77
2019-05-20T13:54:55.220Z,15.10
2019-05-20T13:57:23.653Z,16.53
2019-05-20T13:59:52.491Z,15.27
2019-05-20T14:02:21.199Z,15.40
2019-05-20T14:04:49.877Z,15.33
2019-05-20T14:07:18.600Z,14.80
2019-05-20T14:09:47.304Z,15.67
2019-05-20T14:12:15.740Z,15.73
2019-05-20T14:14:44.702Z,18.43
2019-05-20T14:17:13.127Z,18.37
2019-05-20T14:19:41.644Z,18.10
2019-05-20T14:22:10.429Z,19.13
2019-05-20T14:24:39.150Z,19.50
2019-05-20T14:27:07.898Z,21.73
2019-05-20T14:29:36.361Z,20.87
2019-05-20T14:32:04.869Z,22.67
2019-05-20T14:34:33.569Z,21.62
2019-05-20T14:37:02.358Z,23.27
2019-05-20T14:39:31.100Z,24.30
2019-05-20T14:41:59.790Z,24.67
2019-05-20T14:44:28.505Z,24.07
2019-05-20T14:46:56.929Z,25.33
2019-05-20T14:49:25.623Z,24.80
2019-05-20T14:51:54.426Z,24.40
2019-05-20T14:54:22.853Z,25.23
2019-05-20T15:00:13.878Z,25.17
2019-05-20T15:02:50.004Z,25.20
2019-05-20T15:05:16.267Z,26.67
2019-05-20T15:08:18.394Z,26.33
2019-05-20T15:17:26.180Z,26.17
2019-05-20T15:20:23.143Z,25.70
2019-05-20T15:23:16.814Z,27.90
2019-05-20T15:43:44.269Z,28.20
2019-05-20T15:46:12.866Z,30.10
2019-05-20T15:48:41.641Z,29.50
2019-05-20T15:51:10.375Z,31.93
2019-05-20T15:56:59.281Z,31.93
2019-05-20T16:03:04.807Z,33.03
2019-05-20T16:05:33.714Z,35.90
2019-05-20T16:08:02.446Z,37.20
2019-05-20T16:10:31.208Z,31.53
2019-05-20T16:19:36.935Z,27.47
2019-05-20T16:22:05.731Z,24.50
2019-05-20T16:24:37.769Z,25.83
2019-05-20T17:05:41.030Z,13.50
2019-05-20T17:11:38.180Z,12.60
2019-05-20T17:14:20.972Z,12.17
2019-05-20T17:47:39.080Z,15.77
2019-05-20T17:50:09.368Z,15.10
2019-05-20T17:52:38.964Z,14.87
2019-05-20T17:55:08.600Z,17.17
2019-05-20T17:57:37.210Z,17.10
2019-05-20T18:00:18.346Z,17.90
2019-05-20T18:05:23.596Z,17.10
2019-05-20T18:10:53.645Z,16.27
2019-05-20T18:13:39.410Z,15.13
2019-05-20T21:30:05.500Z,26.77
2019-05-20T21:38:30.989Z,28.20
2019-05-20T21:41:07.392Z,28.83
2019-05-20T21:43:34.369Z,27.73
2019-05-20T21:46:05.235Z,26.27
2019-05-20T21:48:45.757Z,26.93
2019-05-20T21:54:16.850Z,27.43
2019-05-20T21:59:45.239Z,26.30
2019-05-20T22:02:31.733Z,25.50
2019-05-20T23:52:06.619Z,24.07
2019-05-20T23:54:36.002Z,23.67
